KEUL

Caldwell Industrial Airport

Caldwell, Idaho, USA
METAR KEUL 221656Z AUTO 36004KT 10SM CLR 21/11 A2991 RMK AO2 SLP112 T02110111
Observed Flight Rules
May-22 @ 16:56 UTC (57 minutes ago) Visual Flight Rules
Wind Visibility Clouds
360° at 4 knots 10 miles
  • Clear skies
Temperatures Readings
Current 21°C / 70°F
Dewpoint 11°C / 52°F
Humidity 53%
Altimeter 29.91" Hg
Pressure 1011.2 hPa
Elevation 740
METAR KEUL 221656Z AUTO 36004KT 10SM CLR 21/11 A2991 RMK AO2 SLP112 T02110111
Observed Flight Rules
May-22 @ 16:56 UTC
(57 minutes ago)
VFR
Wind Visibility
360° at 4 knots 10 miles
Clouds
  • Clear skies
Temperature Dewpoint
21°C / 70°F 11°C / 52°F
Humidity Altimeter Pressure
53% 29.91" Hg 1011.2 hPa